Time,TemperatureF,DewpointF,PressureIn,WindDirection,WindDirectionDegrees,WindSpeedMPH,WindSpeedGustMPH,Humidity,HourlyPrecipIn,Conditions,Clouds,dailyrainin,SoftwareType,DateUTC
2013-01-20 00:02:00,59.0,54.0,30.01,NW,305,0.0,-999.0,85,-99.99,,,-99.99,,2013-01-20 10:02:00,
2013-01-20 00:11:00,59.0,54.0,30.01,NW,305,0.0,-999.0,85,-99.99,,,-99.99,,2013-01-20 10:11:00,
2013-01-20 00:23:00,58.0,54.0,30.01,NW,305,0.0,-999.0,88,-99.99,,,-99.99,,2013-01-20 10:23:00,
2013-01-20 00:32:00,58.0,54.0,30.00,NW,305,0.0,-999.0,88,-99.99,,,-99.99,,2013-01-20 10:32:00,
2013-01-20 00:42:00,58.0,54.0,30.00,NW,305,0.0,-999.0,88,-99.99,,,-99.99,,2013-01-20 10:42:00,
2013-01-20 00:52:00,57.0,54.0,30.00,NW,305,0.0,-999.0,89,-99.99,,,-99.99,,2013-01-20 10:52:00,
2013-01-20 01:02:00,57.0,54.0,29.99,NW,314,0.0,-999.0,89,-99.99,,,-99.99,,2013-01-20 11:02:00,
2013-01-20 01:11:00,57.0,54.0,29.99,NW,314,0.0,-999.0,89,-99.99,,,-99.99,,2013-01-20 11:11:00,
2013-01-20 01:22:00,58.0,54.0,29.99,North,360,0.0,-999.0,88,-99.99,,,-99.99,,2013-01-20 11:22:00,
2013-01-20 01:32:00,61.0,55.0,29.99,NW,319,1.0,-999.0,82,-99.99,,,-99.99,,2013-01-20 11:32:00,
2013-01-20 01:42:00,61.0,55.0,29.99,NW,319,1.0,-999.0,82,-99.99,,,-99.99,,2013-01-20 11:42:00,
2013-01-20 01:53:00,61.0,55.0,29.99,NW,319,1.0,-999.0,82,-99.99,,,-99.99,,2013-01-20 11:53:00,
2013-01-20 02:02:00,62.0,55.0,29.98,WNW,287,1.0,-999.0,79,-99.99,,,-99.99,,2013-01-20 12:02:00,
2013-01-20 02:12:00,62.0,55.0,29.98,WNW,287,1.0,-999.0,79,-99.99,,,-99.99,,2013-01-20 12:12:00,
2013-01-20 02:22:00,62.0,55.0,29.98,WNW,287,1.0,-999.0,79,-99.99,,,-99.99,,2013-01-20 12:22:00,
2013-01-20 02:33:00,63.0,56.0,29.98,NW,315,0.0,-999.0,78,-99.99,,,-99.99,,2013-01-20 12:33:00,
2013-01-20 02:42:00,63.0,56.0,29.98,NW,315,0.0,-999.0,78,-99.99,,,-99.99,,2013-01-20 12:42:00,
2013-01-20 02:53:00,62.0,55.0,29.98,WNW,302,0.0,-999.0,77,-99.99,,,-99.99,,2013-01-20 12:53:00,
2013-01-20 03:02:00,61.0,54.0,29.97,WNW,284,0.0,-999.0,79,-99.99,,,-99.99,,2013-01-20 13:02:00,
2013-01-20 03:12:00,61.0,54.0,29.97,WNW,284,0.0,-999.0,79,-99.99,,,-99.99,,2013-01-20 13:12:00,
2013-01-20 03:22:00,61.0,55.0,29.97,WNW,286,0.0,-999.0,81,-99.99,,,-99.99,,2013-01-20 13:22:00,
2013-01-20 03:32:00,61.0,54.0,29.97,NNW,327,0.0,-999.0,79,-99.99,,,-99.99,,2013-01-20 13:32:00,
2013-01-20 03:42:00,61.0,54.0,29.97,NNW,327,0.0,-999.0,79,-99.99,,,-99.99,,2013-01-20 13:42:00,
2013-01-20 03:52:00,62.0,55.0,29.97,West,275,1.0,-999.0,78,-99.99,,,-99.99,,2013-01-20 13:52:00,
2013-01-20 04:02:00,60.0,54.0,29.97,West,277,0.0,-999.0,81,-99.99,,,-99.99,,2013-01-20 14:02:00,
2013-01-20 04:11:00,60.0,54.0,29.97,West,277,0.0,-999.0,81,-99.99,,,-99.99,,2013-01-20 14:11:00,
2013-01-20 04:22:00,59.0,53.0,29.97,NW,312,0.0,-999.0,81,-99.99,,,-99.99,,2013-01-20 14:22:00,
2013-01-20 04:32:00,63.0,56.0,29.97,North,5,1.0,-999.0,77,-99.99,,,-99.99,,2013-01-20 14:32:00,
2013-01-20 04:42:00,63.0,56.0,29.97,North,5,1.0,-999.0,77,-99.99,,,-99.99,,2013-01-20 14:42:00,
2013-01-20 04:53:00,65.0,58.0,29.97,NNW,344,1.0,-999.0,77,-99.99,,,-99.99,,2013-01-20 14:53:00,
2013-01-20 05:02:00,65.0,58.0,29.98,NW,318,2.0,-999.0,77,-99.99,,,-99.99,,2013-01-20 15:02:00,
2013-01-20 05:12:00,65.0,58.0,29.98,NW,318,2.0,-999.0,77,-99.99,,,-99.99,,2013-01-20 15:12:00,
2013-01-20 05:22:00,65.0,58.0,29.98,NW,318,2.0,-999.0,77,-99.99,,,-99.99,,2013-01-20 15:22:00,
2013-01-20 05:32:00,62.0,56.0,29.98,NNW,346,0.0,-999.0,80,-99.99,,,-99.99,,2013-01-20 15:32:00,
2013-01-20 05:42:00,62.0,56.0,29.98,NNW,346,0.0,-999.0,80,-99.99,,,-99.99,,2013-01-20 15:42:00,
2013-01-20 05:53:00,63.0,56.0,29.99,WNW,302,1.0,-999.0,79,-99.99,,,-99.99,,2013-01-20 15:53:00,
2013-01-20 06:02:00,63.0,57.0,29.99,West,274,0.0,-999.0,80,-99.99,,,-99.99,,2013-01-20 16:02:00,
2013-01-20 06:12:00,63.0,57.0,29.99,West,274,0.0,-999.0,80,-99.99,,,-99.99,,2013-01-20 16:12:00,
2013-01-20 06:22:00,62.0,56.0,29.99,West,274,0.0,-999.0,82,-99.99,,,-99.99,,2013-01-20 16:22:00,
2013-01-20 06:32:00,63.0,57.0,30.00,NW,314,0.0,-999.0,80,-99.99,,,-99.99,,2013-01-20 16:32:00,
2013-01-20 06:42:00,63.0,57.0,30.00,NW,314,0.0,-999.0,80,-99.99,,,-99.99,,2013-01-20 16:42:00,
2013-01-20 06:52:00,63.0,56.0,30.00,NW,318,0.0,-999.0,79,-99.99,,,-99.99,,2013-01-20 16:52:00,
2013-01-20 07:02:00,62.0,56.0,30.01,West,280,0.0,-999.0,80,-99.99,,,-99.99,,2013-01-20 17:02:00,
2013-01-20 07:12:00,62.0,56.0,30.01,West,280,0.0,-999.0,80,-99.99,,,-99.99,,2013-01-20 17:12:00,
2013-01-20 07:22:00,61.0,55.0,30.01,West,280,0.0,-999.0,81,-99.99,,,-99.99,,2013-01-20 17:22:00,
2013-01-20 07:32:00,60.0,55.0,30.02,West,280,0.0,-999.0,83,-99.99,,,-99.99,,2013-01-20 17:32:00,
2013-01-20 07:42:00,60.0,55.0,30.02,West,280,0.0,-999.0,83,-99.99,,,-99.99,,2013-01-20 17:42:00,
2013-01-20 07:53:00,60.0,55.0,30.02,WNW,289,0.0,-999.0,85,-99.99,,,-99.99,,2013-01-20 17:53:00,
2013-01-20 08:02:00,61.0,57.0,30.02,WNW,288,0.0,-999.0,86,-99.99,,,-99.99,,2013-01-20 18:02:00,
2013-01-20 08:12:00,61.0,57.0,30.02,WNW,288,0.0,-999.0,86,-99.99,,,-99.99,,2013-01-20 18:12:00,
2013-01-20 08:22:00,61.0,57.0,30.03,WNW,288,0.0,-999.0,86,-99.99,,,-99.99,,2013-01-20 18:22:00,
2013-01-20 08:32:00,63.0,57.0,30.03,WNW,288,0.0,-999.0,81,-99.99,,,-99.99,,2013-01-20 18:32:00,
2013-01-20 08:42:00,63.0,57.0,30.03,WNW,288,0.0,-999.0,81,-99.99,,,-99.99,,2013-01-20 18:42:00,
2013-01-20 08:53:00,65.0,58.0,30.03,WNW,288,0.0,-999.0,78,-99.99,,,-99.99,,2013-01-20 18:53:00,
2013-01-20 09:02:00,67.0,59.0,30.04,North,355,0.0,-999.0,75,-99.99,,,-99.99,,2013-01-20 19:02:00,
2013-01-20 09:12:00,67.0,59.0,30.04,North,355,0.0,-999.0,75,-99.99,,,-99.99,,2013-01-20 19:12:00,
2013-01-20 09:22:00,68.0,59.0,30.05,NNW,339,0.0,-999.0,73,-99.99,,,-99.99,,2013-01-20 19:22:00,
2013-01-20 09:32:00,70.0,59.0,30.05,WNW,301,1.0,-999.0,69,-99.99,,,-99.99,,2013-01-20 19:32:00,
2013-01-20 09:42:00,70.0,59.0,30.05,WNW,301,1.0,-999.0,69,-99.99,,,-99.99,,2013-01-20 19:42:00,
2013-01-20 09:52:00,70.0,59.0,30.05,WNW,301,1.0,-999.0,69,-99.99,,,-99.99,,2013-01-20 19:52:00,
2013-01-20 10:02:00,70.0,58.0,30.06,NNW,332,3.0,-999.0,66,-99.99,,,-99.99,,2013-01-20 20:02:00,
2013-01-20 10:12:00,70.0,58.0,30.06,NNW,332,3.0,-999.0,66,-99.99,,,-99.99,,2013-01-20 20:12:00,
2013-01-20 10:22:00,72.0,60.0,30.07,NNW,337,2.0,-999.0,65,-99.99,,,-99.99,,2013-01-20 20:22:00,
2013-01-20 10:33:00,73.0,60.0,30.07,North,9,3.0,-999.0,64,-99.99,,,-99.99,,2013-01-20 20:33:00,
2013-01-20 10:42:00,73.0,60.0,30.07,North,9,3.0,-999.0,64,-99.99,,,-99.99,,2013-01-20 20:42:00,
2013-01-20 10:53:00,73.0,59.0,30.06,North,355,4.0,-999.0,61,-99.99,,,-99.99,,2013-01-20 20:53:00,
2013-01-20 11:02:00,73.0,58.0,30.06,ENE,65,5.0,-999.0,59,-99.99,,,-99.99,,2013-01-20 21:02:00,
2013-01-20 11:12:00,73.0,58.0,30.06,ENE,65,5.0,-999.0,59,-99.99,,,-99.99,,2013-01-20 21:12:00,
2013-01-20 11:22:00,73.0,58.0,30.06,ENE,65,5.0,-999.0,59,-99.99,,,-99.99,,2013-01-20 21:22:00,
2013-01-20 11:33:00,73.0,59.0,30.05,WNW,302,4.0,-999.0,61,-99.99,,,-99.99,,2013-01-20 21:33:00,
2013-01-20 11:42:00,73.0,59.0,30.05,WNW,302,4.0,-999.0,61,-99.99,,,-99.99,,2013-01-20 21:42:00,
2013-01-20 11:53:00,74.0,59.0,30.05,WNW,292,4.0,-999.0,60,-99.99,,,-99.99,,2013-01-20 21:53:00,
2013-01-20 12:02:00,73.0,59.0,30.04,NW,316,5.0,-999.0,62,-99.99,,,-99.99,,2013-01-20 22:02:00,
2013-01-20 12:12:00,73.0,59.0,30.04,NW,316,5.0,-999.0,62,-99.99,,,-99.99,,2013-01-20 22:12:00,
2013-01-20 12:22:00,74.0,60.0,30.03,NNW,346,6.0,-999.0,62,-99.99,,,-99.99,,2013-01-20 22:22:00,
2013-01-20 12:32:00,73.0,59.0,30.03,North,5,7.0,-999.0,61,-99.99,,,-99.99,,2013-01-20 22:32:00,
2013-01-20 12:42:00,73.0,59.0,30.03,North,5,7.0,-999.0,61,-99.99,,,-99.99,,2013-01-20 22:42:00,
2013-01-20 12:53:00,73.0,58.0,30.02,NNW,331,5.0,-999.0,59,-99.99,,,-99.99,,2013-01-20 22:53:00,
2013-01-20 13:02:00,73.0,58.0,30.01,North,10,6.0,-999.0,60,-99.99,,,-99.99,,2013-01-20 23:02:00,
2013-01-20 13:12:00,73.0,58.0,30.01,North,10,6.0,-999.0,60,-99.99,,,-99.99,,2013-01-20 23:12:00,
2013-01-20 13:22:00,74.0,59.0,30.01,WNW,290,4.0,-999.0,60,-99.99,,,-99.99,,2013-01-20 23:22:00,
2013-01-20 13:32:00,74.0,59.0,30.00,NNW,340,5.0,-999.0,59,-99.99,,,-99.99,,2013-01-20 23:32:00,
2013-01-20 13:42:00,74.0,59.0,30.00,NNW,340,5.0,-999.0,59,-99.99,,,-99.99,,2013-01-20 23:42:00,
2013-01-20 13:53:00,73.0,58.0,30.00,West,281,4.0,-999.0,60,-99.99,,,-99.99,,2013-01-20 23:53:00,
2013-01-20 14:02:00,74.0,60.0,29.99,North,355,4.0,-999.0,61,-99.99,,,-99.99,,2013-01-21 00:02:00,
2013-01-20 14:12:00,74.0,60.0,29.99,North,355,4.0,-999.0,61,-99.99,,,-99.99,,2013-01-21 00:12:00,
2013-01-20 14:22:00,73.0,61.0,29.98,NNE,21,5.0,-999.0,65,-99.99,,,-99.99,,2013-01-21 00:22:00,
2013-01-20 14:32:00,73.0,60.0,29.98,NW,318,5.0,-999.0,64,-99.99,,,-99.99,,2013-01-21 00:32:00,
2013-01-20 14:42:00,73.0,60.0,29.98,NW,318,5.0,-999.0,64,-99.99,,,-99.99,,2013-01-21 00:42:00,
2013-01-20 14:53:00,72.0,60.0,29.98,NNW,338,4.0,-999.0,66,-99.99,,,-99.99,,2013-01-21 00:53:00,
2013-01-20 15:02:00,71.0,60.0,29.98,North,360,4.0,-999.0,68,-99.99,,,-99.99,,2013-01-21 01:02:00,
2013-01-20 15:12:00,71.0,60.0,29.98,North,360,4.0,-999.0,68,-99.99,,,-99.99,,2013-01-21 01:12:00,
2013-01-20 15:22:00,70.0,59.0,29.98,NE,46,6.0,-999.0,68,-99.99,,,-99.99,,2013-01-21 01:22:00,
2013-01-20 15:32:00,71.0,60.0,29.98,NNE,23,5.0,-999.0,69,-99.99,,,-99.99,,2013-01-21 01:32:00,
2013-01-20 15:42:00,71.0,60.0,29.98,NNE,23,5.0,-999.0,69,-99.99,,,-99.99,,2013-01-21 01:42:00,
2013-01-20 15:53:00,71.0,60.0,29.98,NNE,28,4.0,-999.0,68,-99.99,,,-99.99,,2013-01-21 01:53:00,
2013-01-20 16:02:00,71.0,60.0,29.98,NNE,23,3.0,-999.0,68,-99.99,,,-99.99,,2013-01-21 02:02:00,
2013-01-20 16:11:00,71.0,60.0,29.98,NNE,23,3.0,-999.0,68,-99.99,,,-99.99,,2013-01-21 02:11:00,
2013-01-20 16:22:00,71.0,60.0,29.98,NNE,23,3.0,-999.0,68,-99.99,,,-99.99,,2013-01-21 02:22:00,
2013-01-20 16:32:00,71.0,59.0,29.98,NNE,20,4.0,-999.0,66,-99.99,,,-99.99,,2013-01-21 02:32:00,
2013-01-20 16:42:00,71.0,59.0,29.98,NNE,20,4.0,-999.0,66,-99.99,,,-99.99,,2013-01-21 02:42:00,
2013-01-20 16:53:00,69.0,58.0,29.99,North,350,4.0,-999.0,68,-99.99,,,-99.99,,2013-01-21 02:53:00,
2013-01-20 17:02:00,69.0,59.0,29.99,NNW,341,2.0,-999.0,70,-99.99,,,-99.99,,2013-01-21 03:02:00,
2013-01-20 17:12:00,69.0,59.0,29.99,NNW,341,2.0,-999.0,70,-99.99,,,-99.99,,2013-01-21 03:12:00,
2013-01-20 17:23:00,70.0,59.0,30.00,NNE,22,2.0,-999.0,69,-99.99,,,-99.99,,2013-01-21 03:23:00,
2013-01-20 17:32:00,69.0,58.0,30.00,North,351,2.0,-999.0,68,-99.99,,,-99.99,,2013-01-21 03:32:00,
2013-01-20 17:42:00,69.0,58.0,30.00,North,351,2.0,-999.0,68,-99.99,,,-99.99,,2013-01-21 03:42:00,
2013-01-20 17:53:00,69.0,58.0,30.01,NW,304,2.0,-999.0,69,-99.99,,,-99.99,,2013-01-21 03:53:00,
2013-01-20 18:02:00,68.0,58.0,30.01,NW,310,1.0,-999.0,71,-99.99,,,-99.99,,2013-01-21 04:02:00,
2013-01-20 18:11:00,68.0,58.0,30.01,NW,310,1.0,-999.0,71,-99.99,,,-99.99,,2013-01-21 04:11:00,
2013-01-20 18:22:00,68.0,58.0,30.01,NW,309,2.0,-999.0,70,-99.99,,,-99.99,,2013-01-21 04:22:00,
2013-01-20 18:32:00,68.0,58.0,30.02,NNW,328,1.0,-999.0,70,-99.99,,,-99.99,,2013-01-21 04:32:00,
2013-01-20 18:42:00,68.0,58.0,30.02,NNW,328,1.0,-999.0,70,-99.99,,,-99.99,,2013-01-21 04:42:00,
2013-01-20 18:53:00,67.0,58.0,30.02,WNW,303,0.0,-999.0,72,-99.99,,,-99.99,,2013-01-21 04:53:00,
2013-01-20 19:03:00,67.0,58.0,30.02,NW,323,0.0,-999.0,72,-99.99,,,-99.99,,2013-01-21 05:03:00,
2013-01-20 19:12:00,67.0,58.0,30.02,NW,323,0.0,-999.0,72,-99.99,,,-99.99,,2013-01-21 05:12:00,
2013-01-20 19:22:00,67.0,59.0,30.03,NW,323,0.0,-999.0,75,-99.99,,,-99.99,,2013-01-21 05:22:00,
2013-01-20 19:32:00,66.0,58.0,30.03,WNW,303,0.0,-999.0,75,-99.99,,,-99.99,,2013-01-21 05:32:00,
2013-01-20 19:42:00,66.0,58.0,30.03,WNW,303,0.0,-999.0,75,-99.99,,,-99.99,,2013-01-21 05:42:00,
2013-01-20 19:53:00,66.0,58.0,30.03,WNW,303,0.0,-999.0,75,-99.99,,,-99.99,,2013-01-21 05:53:00,
2013-01-20 20:02:00,65.0,57.0,30.03,NW,306,0.0,-999.0,76,-99.99,,,-99.99,,2013-01-21 06:02:00,
2013-01-20 20:12:00,65.0,57.0,30.03,NW,306,0.0,-999.0,76,-99.99,,,-99.99,,2013-01-21 06:12:00,
2013-01-20 20:23:00,64.0,57.0,30.04,NW,310,0.0,-999.0,79,-99.99,,,-99.99,,2013-01-21 06:23:00,
2013-01-20 20:32:00,62.0,56.0,30.04,NW,310,0.0,-999.0,81,-99.99,,,-99.99,,2013-01-21 06:32:00,
2013-01-20 20:42:00,62.0,56.0,30.04,NW,310,0.0,-999.0,81,-99.99,,,-99.99,,2013-01-21 06:42:00,
2013-01-20 20:53:00,61.0,56.0,30.04,NW,310,0.0,-999.0,84,-99.99,,,-99.99,,2013-01-21 06:53:00,
2013-01-20 21:02:00,60.0,56.0,30.05,NW,310,0.0,-999.0,86,-99.99,,,-99.99,,2013-01-21 07:02:00,
2013-01-20 21:12:00,60.0,56.0,30.05,NW,310,0.0,-999.0,86,-99.99,,,-99.99,,2013-01-21 07:12:00,
2013-01-20 21:22:00,60.0,56.0,30.05,NW,310,0.0,-999.0,87,-99.99,,,-99.99,,2013-01-21 07:22:00,
2013-01-20 21:32:00,59.0,55.0,30.05,NW,310,0.0,-999.0,87,-99.99,,,-99.99,,2013-01-21 07:32:00,
2013-01-20 21:42:00,59.0,55.0,30.05,NW,310,0.0,-999.0,87,-99.99,,,-99.99,,2013-01-21 07:42:00,
2013-01-20 21:53:00,59.0,56.0,30.06,NW,310,0.0,-999.0,89,-99.99,,,-99.99,,2013-01-21 07:53:00,
2013-01-20 22:02:00,58.0,55.0,30.06,NW,310,0.0,-999.0,89,-99.99,,,-99.99,,2013-01-21 08:02:00,
2013-01-20 22:12:00,58.0,55.0,30.06,NW,310,0.0,-999.0,89,-99.99,,,-99.99,,2013-01-21 08:12:00,
2013-01-20 22:22:00,58.0,55.0,30.06,NW,310,0.0,-999.0,90,-99.99,,,-99.99,,2013-01-21 08:22:00,
2013-01-20 22:32:00,58.0,55.0,30.06,NW,310,0.0,-999.0,90,-99.99,,,-99.99,,2013-01-21 08:32:00,
2013-01-20 22:42:00,58.0,55.0,30.06,NW,310,0.0,-999.0,90,-99.99,,,-99.99,,2013-01-21 08:42:00,
2013-01-20 22:53:00,58.0,55.0,30.06,NW,310,0.0,-999.0,90,-99.99,,,-99.99,,2013-01-21 08:53:00,
2013-01-20 23:02:00,57.0,54.0,30.07,NW,310,0.0,-999.0,90,-99.99,,,-99.99,,2013-01-21 09:02:00,
2013-01-20 23:11:00,57.0,54.0,30.07,NW,310,0.0,-999.0,90,-99.99,,,-99.99,,2013-01-21 09:11:00,
2013-01-20 23:22:00,57.0,54.0,30.06,NW,310,0.0,-999.0,90,-99.99,,,-99.99,,2013-01-21 09:22:00,
2013-01-20 23:32:00,57.0,54.0,30.07,NW,310,0.0,-999.0,91,-99.99,,,-99.99,,2013-01-21 09:32:00,
2013-01-20 23:42:00,57.0,54.0,30.07,NW,310,0.0,-999.0,91,-99.99,,,-99.99,,2013-01-21 09:42:00,
2013-01-20 23:53:00,57.0,54.0,30.06,NW,310,0.0,-999.0,91,-99.99,,,-99.99,,2013-01-21 09:53:00,